Time;durP1;ratioP1;P1;durP2;ratioP2;P2;SDS_P1;SDS_P2;PMS_P1;PMS_P2;Temp;Humidity;BMP_temperature;BMP_pressure;BME280_temperature;BME280_humidity;BME280_pressure;Samples;Min_cycle;Max_cycle;Signal;HPM_P1;HPM_P2
2022/03/29 00:00:38;;;;;;;109.18;56.30;;;;;;;;;;5033375;28;20026;-61
2022/03/29 00:03:04;;;;;;;92.68;53.75;;;;;;;;;;5033957;28;20022;-60
2022/03/29 00:05:31;;;;;;;97.05;52.60;;;;;;;;;;5033066;28;20022;-61
2022/03/29 00:07:57;;;;;;;92.47;53.30;;;;;;;;;;5033527;28;20104;-59
2022/03/29 00:10:24;;;;;;;98.57;53.67;;;;;;;;;;5033862;28;20079;-60
2022/03/29 00:12:53;;;;;;;95.60;52.13;;;;;;;;;;5034173;28;20028;-59
2022/03/29 00:15:20;;;;;;;94.88;53.47;;;;;;;;;;5033763;28;20018;-61
2022/03/29 00:17:47;;;;;;;91.35;52.92;;;;;;;;;;5034459;28;20025;-57
2022/03/29 00:20:13;;;;;;;95.20;51.05;;;;;;;;;;5033964;28;20026;-58
2022/03/29 00:22:40;;;;;;;86.65;52.10;;;;;;;;;;5033252;28;20394;-58
2022/03/29 00:25:07;;;;;;;97.82;53.10;;;;;;;;;;5034352;28;20433;-59
2022/03/29 00:27:35;;;;;;;89.82;50.10;;;;;;;;;;5033819;28;20049;-61
2022/03/29 00:30:01;;;;;;;95.75;51.30;;;;;;;;;;5033279;28;20028;-61
2022/03/29 00:32:27;;;;;;;95.18;50.78;;;;;;;;;;5033247;28;20413;-60
2022/03/29 00:34:54;;;;;;;90.80;49.35;;;;;;;;;;5033505;28;20014;-57
2022/03/29 00:37:20;;;;;;;86.63;46.00;;;;;;;;;;5049142;28;20083;-61
2022/03/29 00:39:46;;;;;;;93.43;49.53;;;;;;;;;;5033729;28;20030;-57
2022/03/29 00:42:12;;;;;;;100.32;48.55;;;;;;;;;;5033398;28;20076;-58
2022/03/29 00:44:38;;;;;;;94.95;48.83;;;;;;;;;;5034269;28;20497;-61
2022/03/29 00:47:05;;;;;;;95.35;51.15;;;;;;;;;;5033367;28;20032;-56
2022/03/29 00:49:31;;;;;;;87.75;47.85;;;;;;;;;;5033029;28;20104;-60
2022/03/29 00:51:59;;;;;;;101.00;52.42;;;;;;;;;;5033748;28;20034;-62
2022/03/29 00:54:26;;;;;;;98.57;51.33;;;;;;;;;;5033280;28;20071;-58
2022/03/29 00:56:52;;;;;;;100.60;53.33;;;;;;;;;;5033541;28;20045;-61
2022/03/29 00:59:19;;;;;;;106.57;52.50;;;;;;;;;;5033596;28;20101;-60
2022/03/29 01:01:45;;;;;;;111.90;59.42;;;;;;;;;;5033271;28;20105;-59
2022/03/29 01:04:12;;;;;;;112.70;56.83;;;;;;;;;;5033115;28;20049;-57
2022/03/29 01:06:38;;;;;;;117.43;57.40;;;;;;;;;;5033488;28;20050;-59
2022/03/29 01:09:05;;;;;;;116.07;61.15;;;;;;;;;;5033352;28;20047;-60
2022/03/29 01:11:32;;;;;;;118.38;63.22;;;;;;;;;;5033039;28;20029;-61
2022/03/29 01:13:59;;;;;;;88.32;47.28;;;;;;;;;;5033106;28;20156;-61
2022/03/29 01:19:15;;;;;;;106.30;57.65;;;;;;;;;;5033130;28;20139;-61
2022/03/29 01:21:42;;;;;;;111.30;60.30;;;;;;;;;;5033118;28;20037;-62
2022/03/29 01:24:11;;;;;;;102.00;55.38;;;;;;;;;;5032790;28;20496;-61
2022/03/29 01:26:37;;;;;;;110.10;57.53;;;;;;;;;;5033202;28;20029;-60
2022/03/29 01:29:03;;;;;;;108.32;55.92;;;;;;;;;;5032894;28;20017;-60
2022/03/29 01:31:31;;;;;;;98.82;52.25;;;;;;;;;;5032793;28;20025;-62
2022/03/29 01:33:57;;;;;;;91.75;50.85;;;;;;;;;;5033070;28;20032;-61
2022/03/29 01:36:24;;;;;;;101.50;51.95;;;;;;;;;;5033170;28;20022;-62
2022/03/29 01:38:50;;;;;;;101.75;53.80;;;;;;;;;;5032652;28;20040;-61
2022/03/29 01:41:16;;;;;;;106.40;55.10;;;;;;;;;;5048741;28;20378;-61
2022/03/29 01:43:42;;;;;;;115.30;58.60;;;;;;;;;;5036713;28;20029;-60
2022/03/29 01:46:12;;;;;;;110.15;59.22;;;;;;;;;;5036582;28;20035;-59
2022/03/29 01:48:38;;;;;;;108.13;58.40;;;;;;;;;;5037024;28;20028;-62
2022/03/29 01:51:06;;;;;;;107.43;56.70;;;;;;;;;;5036814;28;20116;-60
2022/03/29 01:53:32;;;;;;;111.68;57.78;;;;;;;;;;5036715;28;20018;-59
2022/03/29 01:55:59;;;;;;;97.05;50.63;;;;;;;;;;5036819;28;20458;-58
2022/03/29 01:58:26;;;;;;;72.10;38.10;;;;;;;;;;5036385;28;20109;-61
2022/03/29 02:00:52;;;;;;;64.95;35.40;;;;;;;;;;5036452;28;20433;-60
2022/03/29 02:03:19;;;;;;;61.17;33.45;;;;;;;;;;5037041;28;20071;-58
2022/03/29 02:05:45;;;;;;;59.28;34.72;;;;;;;;;;5038499;28;20418;-58
2022/03/29 02:08:11;;;;;;;61.75;31.95;;;;;;;;;;5037548;28;20031;-61
2022/03/29 02:10:38;;;;;;;59.88;32.30;;;;;;;;;;5036681;28;20025;-62
2022/03/29 02:13:04;;;;;;;57.95;30.52;;;;;;;;;;5036612;28;20033;-61
2022/03/29 02:15:31;;;;;;;60.58;31.30;;;;;;;;;;5036116;28;20018;-60
2022/03/29 02:17:57;;;;;;;62.17;31.17;;;;;;;;;;5036495;28;20108;-61
2022/03/29 02:20:25;;;;;;;58.15;30.30;;;;;;;;;;5036072;28;20068;-62
2022/03/29 02:22:51;;;;;;;64.10;31.23;;;;;;;;;;5035868;28;20454;-60
2022/03/29 02:25:18;;;;;;;53.45;29.88;;;;;;;;;;5035908;28;20108;-60
2022/03/29 02:27:45;;;;;;;60.47;28.77;;;;;;;;;;5035510;28;20096;-60
2022/03/29 02:30:13;;;;;;;51.20;28.75;;;;;;;;;;5035992;28;20120;-62
2022/03/29 02:32:39;;;;;;;60.10;33.42;;;;;;;;;;5036000;28;20036;-61
2022/03/29 02:35:06;;;;;;;51.03;28.00;;;;;;;;;;5035361;28;20025;-58
2022/03/29 02:37:32;;;;;;;51.47;30.20;;;;;;;;;;5035632;28;20544;-59
2022/03/29 02:39:58;;;;;;;68.47;35.72;;;;;;;;;;5035444;28;20025;-63
2022/03/29 02:42:24;;;;;;;95.63;49.90;;;;;;;;;;5035250;28;20501;-60
2022/03/29 02:44:51;;;;;;;95.85;51.90;;;;;;;;;;5035534;28;20029;-61
2022/03/29 02:47:17;;;;;;;111.93;58.50;;;;;;;;;;5035717;28;20030;-59
2022/03/29 02:49:43;;;;;;;109.28;55.03;;;;;;;;;;5035284;28;20386;-61
2022/03/29 02:52:10;;;;;;;105.57;56.40;;;;;;;;;;5035654;28;20029;-58
2022/03/29 02:54:36;;;;;;;115.82;54.90;;;;;;;;;;5034980;28;20033;-59
2022/03/29 02:57:03;;;;;;;115.80;57.17;;;;;;;;;;5035282;28;20014;-63
2022/03/29 02:59:29;;;;;;;106.85;56.42;;;;;;;;;;5035794;28;20106;-61
2022/03/29 03:01:56;;;;;;;98.78;48.40;;;;;;;;;;5034882;28;20021;-61
2022/03/29 03:04:22;;;;;;;75.78;37.60;;;;;;;;;;5035404;28;20497;-59
2022/03/29 03:06:48;;;;;;;94.15;47.90;;;;;;;;;;5035607;28;20486;-61
2022/03/29 03:09:14;;;;;;;112.85;56.38;;;;;;;;;;5034611;28;20026;-61
2022/03/29 03:11:41;;;;;;;103.15;53.58;;;;;;;;;;5034980;28;20034;-61
2022/03/29 03:14:07;;;;;;;107.80;54.28;;;;;;;;;;5034887;28;20501;-60
2022/03/29 03:16:33;;;;;;;103.25;51.80;;;;;;;;;;5034553;28;20025;-60
2022/03/29 03:18:59;;;;;;;64.07;34.60;;;;;;;;;;5034859;28;20108;-59
2022/03/29 03:21:26;;;;;;;68.25;34.47;;;;;;;;;;5035082;28;20026;-59
2022/03/29 03:23:53;;;;;;;60.58;29.05;;;;;;;;;;5034363;28;20037;-61
2022/03/29 03:26:19;;;;;;;64.65;32.95;;;;;;;;;;5034922;28;20100;-62
2022/03/29 03:28:50;;;;;;;87.75;43.78;;;;;;;;;;5050112;28;20034;-61
2022/03/29 03:31:18;;;;;;;76.05;40.50;;;;;;;;;;5034092;28;20021;-61
2022/03/29 03:33:44;;;;;;;57.50;30.33;;;;;;;;;;5034424;28;20025;-62
2022/03/29 03:36:10;;;;;;;76.90;41.30;;;;;;;;;;5034764;28;20096;-60
2022/03/29 03:38:37;;;;;;;75.65;41.78;;;;;;;;;;5034111;28;20378;-62
2022/03/29 03:41:03;;;;;;;83.60;46.63;;;;;;;;;;5034311;28;20390;-59
2022/03/29 03:43:29;;;;;;;88.70;47.83;;;;;;;;;;5034396;28;20367;-62
2022/03/29 03:45:55;;;;;;;82.68;41.83;;;;;;;;;;5033987;28;20470;-57
2022/03/29 03:48:22;;;;;;;61.85;27.63;;;;;;;;;;5034406;28;20057;-59
2022/03/29 03:50:48;;;;;;;58.65;27.77;;;;;;;;;;5034296;28;20083;-59
2022/03/29 03:53:14;;;;;;;53.17;27.02;;;;;;;;;;5034479;28;20025;-55
2022/03/29 03:55:40;;;;;;;57.13;29.38;;;;;;;;;;5034169;28;20026;-61
2022/03/29 03:58:06;;;;;;;82.93;44.47;;;;;;;;;;5034328;28;20025;-62
2022/03/29 04:00:32;;;;;;;90.63;46.05;;;;;;;;;;5034258;28;20109;-59
2022/03/29 04:02:59;;;;;;;92.50;47.63;;;;;;;;;;5033813;28;20108;-61
2022/03/29 04:05:27;;;;;;;101.15;48.08;;;;;;;;;;5033070;28;20029;-60
2022/03/29 04:07:53;;;;;;;93.53;42.97;;;;;;;;;;5034347;28;20026;-61
2022/03/29 04:10:20;;;;;;;77.75;40.38;;;;;;;;;;5033780;28;20025;-59
2022/03/29 04:12:46;;;;;;;75.03;38.78;;;;;;;;;;5033798;28;20026;-62
2022/03/29 04:15:12;;;;;;;72.82;37.30;;;;;;;;;;5033789;28;20017;-57
2022/03/29 04:17:39;;;;;;;72.57;36.22;;;;;;;;;;5032163;28;20385;-58
2022/03/29 04:20:06;;;;;;;66.82;35.97;;;;;;;;;;5033125;28;20036;-61
2022/03/29 04:22:32;;;;;;;70.50;37.13;;;;;;;;;;5033982;28;20021;-58
2022/03/29 04:24:58;;;;;;;78.65;39.30;;;;;;;;;;5033657;28;20359;-59
2022/03/29 04:27:24;;;;;;;64.57;34.33;;;;;;;;;;5033690;28;20458;-61
2022/03/29 04:29:50;;;;;;;67.32;35.22;;;;;;;;;;5032897;28;20056;-61
2022/03/29 04:32:16;;;;;;;67.95;35.20;;;;;;;;;;5033787;28;20026;-60
2022/03/29 04:34:44;;;;;;;74.32;36.17;;;;;;;;;;5033802;28;20029;-63
2022/03/29 04:37:11;;;;;;;67.05;34.53;;;;;;;;;;5033692;28;20454;-58
2022/03/29 04:39:38;;;;;;;68.18;33.75;;;;;;;;;;5033720;28;20083;-60
2022/03/29 04:42:05;;;;;;;68.80;35.92;;;;;;;;;;5033471;28;20045;-59
2022/03/29 04:44:34;;;;;;;77.40;35.92;;;;;;;;;;5033418;28;20022;-59
2022/03/29 04:47:04;;;;;;;73.05;36.42;;;;;;;;;;5033291;28;20036;-60
2022/03/29 04:49:30;;;;;;;75.70;36.25;;;;;;;;;;5033800;28;20025;-59
2022/03/29 04:51:56;;;;;;;70.10;36.75;;;;;;;;;;5033163;28;20394;-60
2022/03/29 04:54:23;;;;;;;84.43;40.70;;;;;;;;;;5032878;28;20108;-62
2022/03/29 04:56:49;;;;;;;85.72;40.92;;;;;;;;;;5033080;28;20026;-60
2022/03/29 04:59:15;;;;;;;76.15;39.67;;;;;;;;;;5033686;28;20541;-57
2022/03/29 05:01:41;;;;;;;82.80;41.90;;;;;;;;;;5032844;28;20125;-62
2022/03/29 05:04:10;;;;;;;97.85;45.90;;;;;;;;;;5033213;28;20048;-61
2022/03/29 05:06:36;;;;;;;93.32;47.42;;;;;;;;;;5048769;28;20018;-61
2022/03/29 05:09:03;;;;;;;142.90;68.15;;;;;;;;;;5032726;28;20029;-58
2022/03/29 05:11:30;;;;;;;172.35;84.68;;;;;;;;;;5033725;28;20478;-61
2022/03/29 05:13:56;;;;;;;175.85;87.07;;;;;;;;;;5033151;28;20021;-58
2022/03/29 05:16:22;;;;;;;137.10;70.50;;;;;;;;;;5032821;28;20079;-61
2022/03/29 05:18:49;;;;;;;127.47;63.33;;;;;;;;;;5037342;28;20029;-59
2022/03/29 05:21:15;;;;;;;130.30;63.38;;;;;;;;;;5037022;28;20021;-60
2022/03/29 05:23:41;;;;;;;122.68;55.65;;;;;;;;;;5036936;28;20469;-62
2022/03/29 05:26:07;;;;;;;120.10;55.22;;;;;;;;;;5037207;28;20071;-61
2022/03/29 05:28:34;;;;;;;194.43;77.38;;;;;;;;;;5037085;28;20036;-62
2022/03/29 05:31:00;;;;;;;140.50;60.50;;;;;;;;;;5036500;28;20040;-58
2022/03/29 05:33:27;;;;;;;124.53;56.53;;;;;;;;;;5037217;28;20036;-61
2022/03/29 05:35:53;;;;;;;120.60;55.95;;;;;;;;;;5036446;28;20421;-60
2022/03/29 05:38:19;;;;;;;121.32;64.30;;;;;;;;;;5036436;28;20037;-58
2022/03/29 05:40:45;;;;;;;114.03;59.60;;;;;;;;;;5036920;28;20022;-60
2022/03/29 05:43:12;;;;;;;107.95;59.30;;;;;;;;;;5036623;28;20037;-61
2022/03/29 05:45:40;;;;;;;120.05;61.83;;;;;;;;;;5037231;28;20014;-59
2022/03/29 05:50:52;;;;;;;109.38;60.22;;;;;;;;;;5036500;28;20107;-58
2022/03/29 05:53:18;;;;;;;109.75;60.95;;;;;;;;;;5035858;28;20025;-60
2022/03/29 05:55:45;;;;;;;106.72;58.38;;;;;;;;;;5035731;28;20102;-60
2022/03/29 05:58:15;;;;;;;119.80;63.28;;;;;;;;;;5035723;28;20029;-62
2022/03/29 06:00:41;;;;;;;150.52;79.47;;;;;;;;;;5034228;28;20032;-60
2022/03/29 06:03:08;;;;;;;157.77;80.43;;;;;;;;;;5034834;28;20040;-58
2022/03/29 06:05:36;;;;;;;153.98;75.93;;;;;;;;;;5035125;28;20427;-60
2022/03/29 06:08:02;;;;;;;116.93;60.50;;;;;;;;;;5035780;28;20029;-60
2022/03/29 06:10:28;;;;;;;129.70;62.42;;;;;;;;;;5035906;28;20108;-61
2022/03/29 06:12:54;;;;;;;105.53;54.78;;;;;;;;;;5035975;28;20478;-62
2022/03/29 06:15:20;;;;;;;97.30;50.55;;;;;;;;;;5036422;28;20029;-60
2022/03/29 06:17:47;;;;;;;109.22;55.13;;;;;;;;;;5035710;28;20036;-59
2022/03/29 06:20:13;;;;;;;116.20;59.38;;;;;;;;;;5035959;28;20036;-60
2022/03/29 06:22:44;;;;;;;132.18;66.45;;;;;;;;;;5022531;28;20543;-60
2022/03/29 06:25:11;;;;;;;120.65;62.75;;;;;;;;;;5030321;28;20041;-61
2022/03/29 06:27:37;;;;;;;129.95;61.50;;;;;;;;;;5036164;28;20467;-60
2022/03/29 06:30:05;;;;;;;155.60;70.10;;;;;;;;;;5031866;28;20485;-61
2022/03/29 06:32:31;;;;;;;138.43;68.10;;;;;;;;;;5035443;28;20021;-60
2022/03/29 06:34:57;;;;;;;140.38;66.85;;;;;;;;;;5036183;28;20057;-57
2022/03/29 06:37:23;;;;;;;179.48;97.10;;;;;;;;;;5035589;28;20017;-61
2022/03/29 06:39:49;;;;;;;192.82;93.22;;;;;;;;;;5035867;28;20036;-62
2022/03/29 06:42:18;;;;;;;193.25;89.07;;;;;;;;;;5035837;28;20060;-60
2022/03/29 06:44:45;;;;;;;190.95;91.40;;;;;;;;;;5051122;28;20381;-57
2022/03/29 06:47:11;;;;;;;184.02;96.32;;;;;;;;;;5035051;28;20140;-56
2022/03/29 06:49:37;;;;;;;176.93;91.93;;;;;;;;;;5035688;28;20026;-59
2022/03/29 06:52:04;;;;;;;165.82;96.95;;;;;;;;;;5035429;28;20034;-56
2022/03/29 06:54:31;;;;;;;119.50;65.88;;;;;;;;;;5035548;28;20026;-52
2022/03/29 06:56:57;;;;;;;153.52;81.78;;;;;;;;;;5035633;28;20024;-56
2022/03/29 06:59:23;;;;;;;129.25;68.63;;;;;;;;;;5035811;28;20021;-55
2022/03/29 07:01:50;;;;;;;92.18;52.35;;;;;;;;;;5035202;28;20037;-57
2022/03/29 07:04:16;;;;;;;102.85;51.33;;;;;;;;;;5035143;28;20049;-56
2022/03/29 07:06:42;;;;;;;97.90;54.35;;;;;;;;;;5035481;28;20022;-57
2022/03/29 07:11:53;;;;;;;90.05;47.03;;;;;;;;;;5035373;28;20551;-59
2022/03/29 07:14:20;;;;;;;80.95;45.30;;;;;;;;;;5034979;28;20030;-60
2022/03/29 07:16:46;;;;;;;85.63;46.33;;;;;;;;;;5035160;28;20022;-56
2022/03/29 07:19:12;;;;;;;79.80;42.40;;;;;;;;;;5035135;28;20086;-58
2022/03/29 07:21:39;;;;;;;70.97;40.30;;;;;;;;;;5034813;28;20022;-59
2022/03/29 07:24:08;;;;;;;75.93;41.83;;;;;;;;;;5035062;28;20022;-60
2022/03/29 07:26:35;;;;;;;67.55;36.80;;;;;;;;;;5034789;28;20389;-57
2022/03/29 07:29:01;;;;;;;73.05;37.08;;;;;;;;;;5034197;28;20025;-59
2022/03/29 07:31:28;;;;;;;66.63;35.55;;;;;;;;;;5035201;28;20029;-55
2022/03/29 07:33:54;;;;;;;69.07;35.10;;;;;;;;;;5034522;28;20034;-53
2022/03/29 07:36:20;;;;;;;68.63;36.15;;;;;;;;;;5034401;28;20036;-56
2022/03/29 07:38:46;;;;;;;62.83;35.70;;;;;;;;;;5034462;28;20021;-54
2022/03/29 07:41:12;;;;;;;70.43;37.55;;;;;;;;;;5034356;28;20497;-58
2022/03/29 07:43:39;;;;;;;69.15;36.17;;;;;;;;;;5034294;28;20025;-56
2022/03/29 07:46:05;;;;;;;68.38;35.40;;;;;;;;;;5034290;28;20424;-53
2022/03/29 07:48:31;;;;;;;68.82;35.35;;;;;;;;;;5034087;28;20025;-53
2022/03/29 07:50:57;;;;;;;69.32;34.08;;;;;;;;;;5034405;28;20022;-62
2022/03/29 07:53:25;;;;;;;67.00;34.42;;;;;;;;;;5034619;28;20021;-52
2022/03/29 07:55:52;;;;;;;66.18;30.90;;;;;;;;;;5034449;28;20036;-56
2022/03/29 07:58:19;;;;;;;65.95;31.88;;;;;;;;;;5034319;28;20022;-59
2022/03/29 08:00:49;;;;;;;62.83;30.92;;;;;;;;;;5034400;28;20472;-56
2022/03/29 08:03:17;;;;;;;60.83;29.77;;;;;;;;;;5034149;28;20365;-54
2022/03/29 08:05:44;;;;;;;79.50;30.55;;;;;;;;;;5025464;28;20049;-61
2022/03/29 08:08:16;;;;;;;54.67;32.83;;;;;;;;;;5026307;28;20025;-58
2022/03/29 08:10:47;;;;;;;70.07;38.83;;;;;;;;;;5028010;28;20466;-60
2022/03/29 08:13:16;;;;;;;;;;;;;;;;;;5032494;28;20032;-58
2022/03/29 08:15:53;;;;;;;56.00;30.38;;;;;;;;;;5029887;28;20361;-56
2022/03/29 08:18:19;;;;;;;53.70;31.23;;;;;;;;;;5016484;28;20497;-58
2022/03/29 08:20:47;;;;;;;50.10;31.27;;;;;;;;;;5013834;28;20032;-56
2022/03/29 08:23:13;;;;;;;55.15;30.33;;;;;;;;;;5014084;28;20026;-55
2022/03/29 08:25:42;;;;;;;54.67;32.38;;;;;;;;;;5028218;28;20086;-55
2022/03/29 08:28:08;;;;;;;62.15;38.58;;;;;;;;;;5033641;28;20018;-58
2022/03/29 08:30:37;;;;;;;54.22;30.52;;;;;;;;;;5033774;28;20052;-54
2022/03/29 08:33:04;;;;;;;56.03;30.95;;;;;;;;;;5022402;28;20490;-57
2022/03/29 08:35:31;;;;;;;46.63;30.00;;;;;;;;;;5022776;28;20610;-55
2022/03/29 08:37:57;;;;;;;46.63;29.38;;;;;;;;;;5027620;28;20075;-54
2022/03/29 08:40:26;;;;;;;57.67;31.63;;;;;;;;;;5031384;28;20025;-54
2022/03/29 08:42:54;;;;;;;62.90;30.42;;;;;;;;;;5032143;28;20022;-54
2022/03/29 08:45:22;;;;;;;57.28;29.08;;;;;;;;;;5032314;28;20025;-57
2022/03/29 08:47:48;;;;;;;45.55;29.45;;;;;;;;;;5033373;28;20018;-59
2022/03/29 08:50:15;;;;;;;48.70;27.25;;;;;;;;;;5033284;28;20431;-56
2022/03/29 08:52:42;;;;;;;45.42;28.05;;;;;;;;;;5032203;28;20032;-55
2022/03/29 08:55:09;;;;;;;49.45;26.88;;;;;;;;;;5033422;28;20045;-52
2022/03/29 08:57:36;;;;;;;42.92;28.00;;;;;;;;;;5033093;28;20116;-56
2022/03/29 09:00:04;;;;;;;45.10;27.13;;;;;;;;;;5032881;28;20032;-54
2022/03/29 09:02:34;;;;;;;51.15;26.80;;;;;;;;;;5033834;28;20026;-54
2022/03/29 09:05:27;;;;;;;46.70;24.75;;;;;;;;;;5033452;28;20054;-56
2022/03/29 09:07:54;;;;;;;43.28;24.73;;;;;;;;;;5031180;28;20041;-53
2022/03/29 09:10:21;;;;;;;41.55;25.98;;;;;;;;;;5033328;28;20068;-54
2022/03/29 09:12:48;;;;;;;44.33;25.67;;;;;;;;;;5033332;28;20057;-52
2022/03/29 09:15:14;;;;;;;45.13;26.13;;;;;;;;;;5033258;28;20355;-57
2022/03/29 09:17:42;;;;;;;44.03;26.90;;;;;;;;;;5033040;28;20022;-56
2022/03/29 09:20:08;;;;;;;48.50;26.92;;;;;;;;;;5033000;28;20029;-54
2022/03/29 09:22:40;;;;;;;40.15;25.98;;;;;;;;;;5033278;28;20048;-53
2022/03/29 09:25:07;;;;;;;43.15;25.88;;;;;;;;;;5033199;28;20095;-58
2022/03/29 09:27:49;;;;;;;41.55;24.80;;;;;;;;;;5031500;28;20490;-57
2022/03/29 09:30:16;;;;;;;37.45;23.02;;;;;;;;;;5033182;28;20076;-57
2022/03/29 09:32:56;;;;;;;38.67;23.67;;;;;;;;;;5032949;28;20029;-54
2022/03/29 09:35:22;;;;;;;39.83;24.38;;;;;;;;;;5032872;28;20026;-50
2022/03/29 09:37:48;;;;;;;41.58;25.70;;;;;;;;;;5031792;28;20014;-55
2022/03/29 09:40:15;;;;;;;43.28;26.48;;;;;;;;;;5033160;28;20022;-56
2022/03/29 09:42:41;;;;;;;44.03;26.17;;;;;;;;;;5031603;28;20422;-55
2022/03/29 09:45:08;;;;;;;43.85;26.38;;;;;;;;;;5033248;28;20088;-56
2022/03/29 09:47:35;;;;;;;47.60;28.77;;;;;;;;;;5032852;28;20021;-55
2022/03/29 09:50:06;;;;;;;50.75;27.70;;;;;;;;;;5028835;28;20080;-56
2022/03/29 09:52:35;;;;;;;47.88;27.58;;;;;;;;;;5014665;28;20038;-53
2022/03/29 09:55:06;;;;;;;47.65;27.83;;;;;;;;;;5012969;28;20030;-57
2022/03/29 09:57:32;;;;;;;;;;;;;;;;;;5022164;28;20108;-57
2022/03/29 09:59:58;;;;;;;46.30;25.85;;;;;;;;;;5032781;28;19940;-54
2022/03/29 10:02:32;;;;;;;42.58;27.17;;;;;;;;;;5032794;28;20029;-52
2022/03/29 10:04:58;;;;;;;40.88;28.63;;;;;;;;;;5036224;28;20438;-53
2022/03/29 10:07:25;;;;;;;44.70;27.50;;;;;;;;;;5036475;28;20030;-55
2022/03/29 10:09:51;;;;;;;50.10;27.02;;;;;;;;;;5021718;28;20034;-52
2022/03/29 10:12:19;;;;;;;44.80;25.80;;;;;;;;;;5028356;28;20029;-57
2022/03/29 10:14:47;;;;;;;44.75;26.02;;;;;;;;;;5015965;28;20025;-55
2022/03/29 10:17:15;;;;;;;41.40;24.35;;;;;;;;;;5014558;28;20022;-54
2022/03/29 10:19:44;;;;;;;40.75;25.25;;;;;;;;;;5015218;28;20084;-58
2022/03/29 10:22:13;;;;;;;40.25;25.45;;;;;;;;;;5016106;28;20386;-57
2022/03/29 10:24:39;;;;;;;37.05;24.98;;;;;;;;;;5016239;28;20025;-56
2022/03/29 10:27:06;;;;;;;42.08;25.58;;;;;;;;;;5016401;28;20032;-58
2022/03/29 10:29:32;;;;;;;32.55;23.83;;;;;;;;;;5016267;28;20030;-57
2022/03/29 10:32:01;;;;;;;35.05;23.13;;;;;;;;;;5016210;28;20030;-57
2022/03/29 10:34:39;;;;;;;32.28;23.73;;;;;;;;;;5015538;28;20026;-53
2022/03/29 10:37:07;;;;;;;35.65;23.48;;;;;;;;;;5015593;28;20030;-55
2022/03/29 10:39:45;;;;;;;42.17;24.80;;;;;;;;;;5016374;28;20053;-57
2022/03/29 10:42:36;;;;;;;41.08;23.77;;;;;;;;;;5014709;28;20532;-53
2022/03/29 10:45:05;;;;;;;35.83;23.38;;;;;;;;;;5014532;28;20048;-54
2022/03/29 10:47:32;;;;;;;37.38;24.00;;;;;;;;;;5015454;28;20597;-56
2022/03/29 10:49:58;;;;;;;36.88;23.65;;;;;;;;;;5015857;28;20041;-54
2022/03/29 10:52:25;;;;;;;54.45;33.72;;;;;;;;;;5015641;28;20463;-52
2022/03/29 10:54:53;;;;;;;37.95;23.23;;;;;;;;;;5016134;28;20084;-54
2022/03/29 10:57:31;;;;;;;33.65;22.95;;;;;;;;;;5015821;28;20525;-55
2022/03/29 11:00:10;;;;;;;36.05;23.98;;;;;;;;;;5015199;28;20053;-54
2022/03/29 11:02:37;;;;;;;36.95;23.55;;;;;;;;;;5015376;28;20026;-58
2022/03/29 11:05:07;;;;;;;34.22;21.30;;;;;;;;;;5016109;28;20050;-57
2022/03/29 11:07:57;;;;;;;31.48;21.38;;;;;;;;;;5016208;28;20026;-55
2022/03/29 11:10:38;;;;;;;31.50;21.23;;;;;;;;;;5014757;28;20034;-56
2022/03/29 11:13:23;;;;;;;34.45;21.98;;;;;;;;;;5015037;28;20105;-53
2022/03/29 11:15:49;;;;;;;42.60;30.60;;;;;;;;;;5014781;28;20046;-53
2022/03/29 11:18:30;;;;;;;31.23;21.05;;;;;;;;;;5015177;28;20582;-58
2022/03/29 11:21:02;;;;;;;32.53;21.40;;;;;;;;;;5014774;28;20034;-60
2022/03/29 11:23:42;;;;;;;31.50;22.25;;;;;;;;;;5015409;28;20037;-58
2022/03/29 11:26:18;;;;;;;28.30;20.63;;;;;;;;;;5014939;28;20028;-55
2022/03/29 11:28:47;;;;;;;29.42;20.83;;;;;;;;;;5015127;28;20033;-57
2022/03/29 11:31:14;;;;;;;29.75;20.38;;;;;;;;;;5015250;28;20417;-59
2022/03/29 11:33:40;;;;;;;28.42;19.75;;;;;;;;;;5014474;28;20022;-58
2022/03/29 11:36:07;;;;;;;30.33;20.23;;;;;;;;;;5015651;28;20096;-54
2022/03/29 11:38:36;;;;;;;28.17;19.83;;;;;;;;;;5015892;28;20017;-60
2022/03/29 11:41:02;;;;;;;29.73;19.95;;;;;;;;;;5014886;28;20033;-54
2022/03/29 11:43:29;;;;;;;25.05;20.10;;;;;;;;;;5014709;28;20113;-57
2022/03/29 11:45:55;;;;;;;30.83;21.23;;;;;;;;;;5014875;28;20076;-59
2022/03/29 11:48:24;;;;;;;30.90;20.65;;;;;;;;;;5014264;28;20030;-59
2022/03/29 11:51:01;;;;;;;29.38;19.40;;;;;;;;;;5015079;28;20028;-58
2022/03/29 11:53:31;;;;;;;24.60;18.92;;;;;;;;;;5014410;28;20500;-58
2022/03/29 11:55:58;;;;;;;25.17;18.70;;;;;;;;;;5013199;28;20379;-57
2022/03/29 11:58:37;;;;;;;24.60;18.98;;;;;;;;;;5015073;28;20041;-57
2022/03/29 12:01:07;;;;;;;28.63;19.27;;;;;;;;;;5014345;28;20045;-57
2022/03/29 12:03:35;;;;;;;23.58;17.83;;;;;;;;;;5014825;28;20042;-56
2022/03/29 12:06:04;;;;;;;24.25;17.73;;;;;;;;;;5014625;28;20378;-57
2022/03/29 12:08:46;;;;;;;23.70;16.92;;;;;;;;;;5014147;28;20030;-57
2022/03/29 12:11:15;;;;;;;26.08;18.55;;;;;;;;;;5014319;28;20038;-60
2022/03/29 12:14:02;;;;;;;24.20;18.42;;;;;;;;;;5012585;28;20109;-60
2022/03/29 12:16:28;;;;;;;24.58;17.75;;;;;;;;;;5012675;28;20045;-59
2022/03/29 12:18:55;;;;;;;21.77;17.48;;;;;;;;;;5012974;28;20041;-54
2022/03/29 12:21:23;;;;;;;26.38;19.63;;;;;;;;;;5013194;28;20084;-57
2022/03/29 12:23:57;;;;;;;27.65;19.17;;;;;;;;;;5013446;28;20030;-59
2022/03/29 12:26:24;;;;;;;26.52;19.00;;;;;;;;;;5013666;28;20463;-57
2022/03/29 12:28:50;;;;;;;23.48;18.45;;;;;;;;;;5013707;28;20034;-58
2022/03/29 12:31:17;;;;;;;25.58;18.73;;;;;;;;;;5013970;28;20044;-57
2022/03/29 12:33:44;;;;;;;26.27;19.35;;;;;;;;;;5014080;28;20109;-59
2022/03/29 12:36:11;;;;;;;22.00;17.70;;;;;;;;;;5014159;28;20485;-59
2022/03/29 12:38:40;;;;;;;26.50;19.33;;;;;;;;;;5014316;28;20117;-57
2022/03/29 12:41:07;;;;;;;25.20;19.02;;;;;;;;;;5013782;28;20478;-57
2022/03/29 12:43:35;;;;;;;26.80;18.00;;;;;;;;;;5013412;28;20121;-57
2022/03/29 12:46:01;;;;;;;26.73;17.95;;;;;;;;;;5013662;28;20018;-58
2022/03/29 12:48:28;;;;;;;28.65;20.35;;;;;;;;;;5013956;28;20033;-57
2022/03/29 12:50:55;;;;;;;23.83;18.10;;;;;;;;;;5013605;28;20034;-58
2022/03/29 12:53:21;;;;;;;26.75;18.75;;;;;;;;;;5013946;28;20451;-56
2022/03/29 12:55:55;;;;;;;26.23;20.08;;;;;;;;;;5013878;28;20021;-58
2022/03/29 12:58:30;;;;;;;26.60;18.13;;;;;;;;;;5013646;28;20025;-56
2022/03/29 13:00:56;;;;;;;23.25;17.63;;;;;;;;;;5013900;28;20541;-58
2022/03/29 13:03:23;;;;;;;26.40;18.77;;;;;;;;;;5013574;28;20052;-54
2022/03/29 13:05:49;;;;;;;28.88;18.45;;;;;;;;;;5013824;28;20025;-56
2022/03/29 13:08:22;;;;;;;29.05;19.27;;;;;;;;;;5013784;28;20033;-58
2022/03/29 13:10:50;;;;;;;24.05;17.85;;;;;;;;;;5013621;28;20034;-58
2022/03/29 13:13:19;;;;;;;24.90;18.95;;;;;;;;;;5013433;28;20080;-57
2022/03/29 13:15:59;;;;;;;26.15;18.63;;;;;;;;;;5014248;28;20034;-52
2022/03/29 13:18:32;;;;;;;26.55;18.60;;;;;;;;;;5013407;28;20351;-56
2022/03/29 13:21:05;;;;;;;29.38;21.00;;;;;;;;;;5014158;28;20030;-56
2022/03/29 13:23:33;;;;;;;24.52;19.38;;;;;;;;;;5013653;28;20026;-55
2022/03/29 13:26:00;;;;;;;26.63;20.15;;;;;;;;;;5013026;28;20018;-59
2022/03/29 13:28:26;;;;;;;24.10;18.98;;;;;;;;;;5013339;28;20037;-57
2022/03/29 13:30:53;;;;;;;27.35;19.83;;;;;;;;;;5013662;28;20033;-55
2022/03/29 13:33:19;;;;;;;22.92;19.23;;;;;;;;;;5013310;28;20054;-57
2022/03/29 13:35:46;;;;;;;26.27;19.55;;;;;;;;;;5013324;28;20030;-58
2022/03/29 13:38:13;;;;;;;23.52;18.48;;;;;;;;;;5015104;28;20022;-58
2022/03/29 13:40:39;;;;;;;25.17;18.40;;;;;;;;;;5019313;28;20091;-57
2022/03/29 13:43:06;;;;;;;25.25;18.02;;;;;;;;;;5036761;28;20057;-54
2022/03/29 13:45:32;;;;;;;26.30;18.77;;;;;;;;;;5036812;28;20541;-54
2022/03/29 13:47:58;;;;;;;30.13;22.50;;;;;;;;;;5036285;28;20034;-58
2022/03/29 13:50:25;;;;;;;24.55;18.30;;;;;;;;;;5036667;28;20036;-52
2022/03/29 13:52:51;;;;;;;27.60;19.48;;;;;;;;;;5036442;28;20113;-53
2022/03/29 13:55:17;;;;;;;23.75;18.33;;;;;;;;;;5037313;28;20032;-52
2022/03/29 13:57:44;;;;;;;24.77;19.30;;;;;;;;;;5037124;28;20114;-54
2022/03/29 14:00:12;;;;;;;29.10;19.83;;;;;;;;;;5036601;28;20117;-55
2022/03/29 14:02:38;;;;;;;28.77;20.10;;;;;;;;;;5036775;28;20430;-58
2022/03/29 14:05:05;;;;;;;26.23;19.40;;;;;;;;;;5036669;28;20394;-57
2022/03/29 14:07:32;;;;;;;27.48;19.25;;;;;;;;;;5036277;28;20516;-57
2022/03/29 14:09:58;;;;;;;23.88;18.50;;;;;;;;;;5036342;28;20553;-54
2022/03/29 14:12:24;;;;;;;23.48;17.85;;;;;;;;;;5035114;28;20475;-57
2022/03/29 14:14:50;;;;;;;28.63;19.45;;;;;;;;;;5036091;28;20029;-57
2022/03/29 14:17:17;;;;;;;25.45;19.55;;;;;;;;;;5036381;28;20022;-58
2022/03/29 14:19:45;;;;;;;26.52;20.00;;;;;;;;;;5035828;28;20382;-57
2022/03/29 14:22:14;;;;;;;28.10;19.58;;;;;;;;;;5035700;28;20026;-56
2022/03/29 14:24:40;;;;;;;27.92;19.77;;;;;;;;;;5036123;28;20025;-58